createdAt,value
2019-01-05T00:02:26.637Z,17.33
2019-01-05T00:07:22.899Z,17.73
2019-01-05T00:12:30.841Z,17.83
2019-01-05T00:17:25.655Z,16.90
2019-01-05T00:22:25.225Z,18.73
2019-01-05T00:27:27.899Z,18.77
2019-01-05T00:32:27.711Z,17.67
2019-01-05T00:37:24.077Z,20.10
2019-01-05T00:42:24.123Z,19.80
2019-01-05T00:47:23.362Z,20.27
2019-01-05T00:52:35.503Z,20.23
2019-01-05T00:57:50.855Z,20.27
2019-01-05T01:02:56.369Z,20.63
2019-01-05T01:07:55.410Z,20.23
2019-01-05T01:12:54.513Z,20.77
2019-01-05T01:18:00.214Z,20.13
2019-01-05T01:23:00.558Z,21.30
2019-01-05T01:28:13.090Z,21.13
2019-01-05T01:33:13.190Z,20.70
2019-01-05T01:38:25.385Z,22.17
2019-01-05T01:43:30.496Z,21.03
2019-01-05T01:48:35.794Z,20.57
2019-01-05T01:53:32.557Z,21.30
2019-01-05T01:58:35.866Z,20.77
2019-01-05T02:03:32.262Z,21.50
2019-01-05T02:08:44.311Z,20.40
2019-01-05T02:13:44.460Z,19.60
2019-01-05T02:18:58.222Z,20.87
2019-01-05T02:24:22.726Z,20.73
2019-01-05T02:30:06.116Z,21.60
2019-01-05T02:35:31.645Z,21.57
2019-01-05T02:41:29.574Z,21.03
2019-01-05T02:46:48.831Z,21.37
2019-01-05T02:52:37.304Z,21.23
2019-01-05T02:57:55.679Z,19.93
2019-01-05T03:03:30.741Z,20.17
2019-01-05T03:08:51.453Z,19.43
2019-01-05T03:14:25.094Z,16.40
2019-01-05T03:19:41.838Z,16.87
2019-01-05T03:25:20.896Z,17.50
2019-01-05T03:30:48.165Z,16.83
2019-01-05T03:36:21.108Z,17.13
2019-01-05T03:42:21.499Z,17.03
2019-01-05T03:47:47.260Z,16.47
2019-01-05T03:53:13.180Z,17.07
2019-01-05T03:58:49.383Z,17.53
2019-01-05T04:04:21.517Z,15.77
2019-01-05T04:10:00.743Z,16.53
2019-01-05T04:15:44.236Z,17.47
2019-01-05T04:21:06.520Z,17.83
2019-01-05T04:26:36.138Z,17.43
2019-01-05T04:31:58.383Z,17.17
2019-01-05T04:37:20.019Z,17.03
2019-01-05T04:43:12.686Z,17.57
2019-01-05T04:48:47.084Z,16.17
2019-01-05T04:54:02.306Z,16.37
2019-01-05T04:59:25.191Z,15.77
2019-01-05T05:05:05.994Z,17.13
2019-01-05T05:10:43.772Z,16.60
2019-01-05T05:16:22.808Z,16.20
2019-01-05T05:22:02.842Z,16.07
2019-01-05T05:27:54.206Z,16.10
2019-01-05T05:33:21.692Z,15.87
2019-01-05T05:39:00.749Z,15.97
2019-01-05T05:44:25.101Z,14.97
2019-01-05T05:50:05.569Z,14.77
2019-01-05T05:55:30.109Z,14.30
2019-01-05T06:01:06.277Z,14.10
2019-01-05T06:06:30.834Z,13.80
2019-01-05T06:12:26.982Z,14.17
2019-01-05T06:17:43.585Z,15.20
2019-01-05T06:23:22.399Z,14.40
2019-01-05T06:29:02.823Z,15.73
2019-01-05T06:34:22.727Z,16.47
2019-01-05T06:40:05.167Z,17.13
2019-01-05T06:45:47.186Z,18.90
2019-01-05T06:51:18.365Z,18.60
2019-01-05T06:57:00.937Z,19.10
2019-01-05T07:02:31.128Z,20.53
2019-01-05T07:08:37.274Z,20.23
2019-01-05T07:14:04.791Z,19.70
2019-01-05T07:19:32.227Z,20.97
2019-01-05T07:25:13.188Z,19.97
2019-01-05T07:31:08.686Z,21.43
2019-01-05T07:36:50.657Z,19.53
2019-01-05T07:42:52.186Z,20.07
2019-01-05T07:49:00.373Z,19.83
2019-01-05T07:54:24.602Z,20.57
2019-01-05T08:00:07.016Z,20.53
2019-01-05T08:05:45.836Z,18.90
2019-01-05T08:11:10.802Z,19.53
2019-01-05T08:16:51.722Z,19.77
2019-01-05T08:22:26.776Z,19.37
2019-01-05T08:28:17.846Z,20.97
2019-01-05T08:34:21.424Z,19.20
2019-01-05T08:40:06.433Z,19.70
2019-01-05T08:45:51.818Z,20.03
2019-01-05T08:51:16.369Z,20.57
2019-01-05T08:57:05.896Z,19.90
2019-01-05T09:02:27.604Z,20.63
2019-01-05T09:08:01.758Z,18.17
2019-01-05T09:13:19.833Z,17.87
2019-01-05T09:18:52.685Z,15.73
2019-01-05T09:24:39.771Z,15.23
2019-01-05T09:30:11.750Z,14.27
2019-01-05T09:35:54.913Z,14.07
2019-01-05T09:41:50.687Z,13.30
2019-01-05T09:47:12.178Z,12.70
2019-01-05T09:52:51.175Z,13.27
2019-01-05T09:58:45.783Z,13.57
2019-01-05T10:04:16.049Z,13.50
2019-01-05T10:10:13.574Z,15.50
2019-01-05T10:15:37.750Z,15.00
2019-01-05T10:21:15.353Z,15.23
2019-01-05T10:27:00.555Z,15.33
2019-01-05T10:32:33.548Z,16.00
2019-01-05T10:38:02.797Z,16.47
2019-01-05T10:43:23.255Z,16.20
2019-01-05T10:49:04.908Z,17.63
2019-01-05T10:54:44.057Z,16.40
2019-01-05T11:00:11.132Z,15.40
2019-01-05T11:05:35.428Z,16.07
2019-01-05T11:11:28.092Z,13.23
2019-01-05T11:16:47.496Z,14.00
2019-01-05T11:22:06.975Z,11.97
2019-01-05T11:27:49.324Z,12.30
2019-01-05T11:33:16.712Z,12.20
2019-01-05T11:38:35.178Z,11.50
2019-01-05T11:43:44.726Z,10.13
2019-01-05T11:48:57.068Z,8.97
2019-01-05T11:54:34.725Z,8.90
2019-01-05T12:00:21.234Z,7.97
2019-01-05T12:05:46.985Z,7.07
2019-01-05T12:11:19.055Z,7.10
2019-01-05T12:17:13.279Z,7.00
2019-01-05T12:22:49.374Z,6.70
2019-01-05T12:27:58.958Z,6.10
2019-01-05T12:33:48.819Z,5.93
2019-01-05T12:39:31.507Z,5.10
2019-01-05T12:44:43.699Z,4.97
2019-01-05T12:50:02.120Z,4.57
2019-01-05T12:55:51.504Z,4.50
2019-01-05T13:01:54.912Z,4.37
2019-01-05T13:07:34.612Z,4.17
2019-01-05T13:13:22.037Z,4.27
2019-01-05T13:18:37.049Z,3.97
2019-01-05T13:24:30.258Z,4.17
2019-01-05T13:30:10.684Z,4.53
2019-01-05T13:35:42.541Z,4.60
2019-01-05T13:41:02.094Z,5.23
2019-01-05T13:46:23.360Z,7.40
2019-01-05T13:51:29.885Z,5.80
2019-01-05T13:56:26.673Z,5.53
2019-01-05T14:01:37.751Z,5.20
2019-01-05T14:06:34.015Z,5.50
2019-01-05T14:11:42.270Z,5.97
2019-01-05T14:16:44.322Z,5.80
2019-01-05T14:21:55.570Z,5.80
2019-01-05T14:26:51.792Z,5.33
2019-01-05T14:31:53.606Z,6.50
2019-01-05T14:36:59.491Z,6.97
2019-01-05T14:42:07.346Z,6.90
2019-01-05T14:47:18.683Z,7.17
2019-01-05T14:52:20.602Z,7.43
2019-01-05T14:57:32.449Z,7.30
2019-01-05T15:02:40.486Z,7.00
2019-01-05T15:07:36.773Z,7.13
2019-01-05T15:12:48.038Z,6.80
2019-01-05T15:18:00.150Z,6.87
2019-01-05T15:22:54.538Z,6.63
2019-01-05T15:27:50.765Z,6.90
2019-01-05T15:32:52.791Z,7.00
2019-01-05T15:37:54.682Z,7.00
2019-01-05T15:42:50.921Z,6.87
2019-01-05T15:47:47.158Z,7.00
2019-01-05T15:52:44.242Z,7.53
2019-01-05T15:57:56.056Z,7.17
2019-01-05T16:02:50.447Z,6.33
2019-01-05T16:10:35.869Z,6.80
2019-01-05T16:15:34.864Z,6.63
2019-01-05T16:20:37.976Z,7.30
2019-01-05T16:25:34.229Z,7.23
2019-01-05T16:30:42.508Z,7.30
2019-01-05T16:35:38.770Z,7.63
2019-01-05T16:40:50.994Z,8.20
2019-01-05T16:45:49.653Z,7.30
2019-01-05T16:50:52.097Z,7.97
2019-01-05T16:55:54.896Z,7.93
2019-01-05T17:00:56.587Z,7.73
2019-01-05T17:06:09.044Z,7.93
2019-01-05T17:11:23.380Z,7.67
2019-01-05T17:16:19.623Z,7.90
2019-01-05T17:21:30.425Z,7.93
2019-01-05T17:26:35.942Z,8.03
2019-01-05T17:31:32.210Z,8.47
2019-01-05T17:36:26.566Z,8.63
2019-01-05T17:41:28.552Z,8.47
2019-01-05T17:46:27.205Z,8.40
2019-01-05T17:51:25.875Z,8.27
2019-01-05T17:56:22.169Z,8.47
2019-01-05T18:01:36.592Z,8.20
2019-01-05T18:06:33.542Z,8.40
2019-01-05T18:11:33.027Z,8.73
2019-01-05T18:16:31.991Z,8.77
2019-01-05T18:21:28.249Z,9.27
2019-01-05T18:26:39.154Z,9.60
2019-01-05T18:31:51.459Z,9.43
2019-01-05T18:36:50.433Z,9.50
2019-01-05T18:41:58.395Z,8.43
2019-01-05T18:47:10.792Z,9.20
2019-01-05T18:52:24.963Z,8.93
2019-01-05T18:57:24.146Z,9.00
2019-01-05T19:02:32.380Z,9.43
2019-01-05T19:07:31.480Z,9.23
2019-01-05T19:12:27.825Z,9.13
2019-01-05T19:17:42.402Z,8.87
2019-01-05T19:22:47.323Z,8.53
2019-01-05T19:27:59.574Z,9.13
2019-01-05T19:33:08.074Z,9.37
2019-01-05T19:38:19.557Z,9.13
2019-01-05T19:43:16.741Z,8.60
2019-01-05T19:48:18.950Z,8.97
2019-01-05T19:53:18.186Z,9.30
2019-01-05T19:58:17.224Z,8.97
2019-01-05T20:03:29.768Z,9.40
2019-01-05T20:08:29.753Z,9.60
2019-01-05T20:13:31.701Z,9.53
2019-01-05T20:18:31.769Z,10.03
2019-01-05T20:23:43.745Z,9.33
2019-01-05T20:28:38.137Z,9.03
2019-01-05T20:33:47.412Z,9.53
2019-01-05T20:38:58.899Z,9.53
2019-01-05T20:43:57.874Z,9.17
2019-01-05T20:49:10.383Z,10.00
2019-01-05T20:54:09.343Z,8.80
2019-01-05T20:59:14.449Z,8.83
2019-01-05T21:04:22.676Z,9.23
2019-01-05T21:09:30.830Z,8.90
2019-01-05T21:14:29.777Z,9.30
2019-01-05T21:19:26.043Z,9.83
2019-01-05T21:24:33.976Z,9.13
2019-01-05T21:29:45.512Z,9.07
2019-01-05T21:34:57.429Z,8.47
2019-01-05T21:40:08.722Z,9.33
2019-01-05T21:45:20.776Z,9.20
2019-01-05T21:50:17.005Z,9.37
2019-01-05T21:55:29.286Z,9.83
2019-01-05T22:00:41.857Z,9.90
2019-01-05T22:05:38.126Z,10.53
2019-01-05T22:10:50.509Z,10.13
2019-01-05T22:15:46.782Z,10.17
2019-01-05T22:20:45.926Z,9.83
2019-01-05T22:25:58.509Z,9.77
2019-01-05T22:30:54.782Z,9.20
2019-01-05T22:35:51.116Z,9.07
2019-01-05T22:40:47.372Z,10.03
2019-01-05T22:45:46.127Z,8.93
2019-01-05T22:50:47.813Z,9.70
2019-01-05T22:56:00.265Z,9.13
2019-01-05T23:01:02.376Z,9.20
2019-01-05T23:06:07.629Z,8.63
2019-01-05T23:11:19.057Z,7.83
2019-01-05T23:16:15.281Z,8.63
2019-01-05T23:21:14.310Z,8.80
2019-01-05T23:26:13.275Z,8.90
2019-01-05T23:31:22.671Z,8.60
2019-01-05T23:36:35.804Z,8.27
2019-01-05T23:41:32.662Z,8.50
2019-01-05T23:46:44.649Z,8.27
2019-01-05T23:51:43.847Z,8.57
2019-01-05T23:56:40.100Z,8.43
